createdAt,value
2017-08-25T00:01:02.499Z,63.97
2017-08-25T00:03:30.030Z,63.74
2017-08-25T00:05:57.490Z,64.08
2017-08-25T00:08:24.981Z,64.20
2017-08-25T00:10:53.288Z,64.29
2017-08-25T00:13:20.777Z,64.11
2017-08-25T00:15:48.240Z,64.04
2017-08-25T00:18:15.721Z,64.26
2017-08-25T00:20:43.181Z,64.46
2017-08-25T00:23:10.645Z,64.99
2017-08-25T00:25:38.133Z,65.23
2017-08-25T00:28:05.577Z,64.95
2017-08-25T00:30:33.068Z,64.63
2017-08-25T00:33:00.527Z,64.46
2017-08-25T00:35:28.035Z,65.58
2017-08-25T00:37:55.487Z,66.01
2017-08-25T00:40:22.981Z,65.63
2017-08-25T00:42:50.516Z,66.00
2017-08-25T00:45:18.334Z,66.08
2017-08-25T00:47:45.799Z,65.92
2017-08-25T00:50:13.272Z,65.71
2017-08-25T00:52:40.783Z,65.57
2017-08-25T00:55:08.265Z,65.50
2017-08-25T00:57:35.751Z,65.77
2017-08-25T01:00:03.221Z,65.85
2017-08-25T01:02:30.722Z,65.60
2017-08-25T01:04:58.197Z,65.81
2017-08-25T01:07:25.802Z,65.99
2017-08-25T01:09:53.298Z,66.34
2017-08-25T01:12:20.790Z,66.58
2017-08-25T01:14:48.255Z,66.44
2017-08-25T01:17:15.733Z,66.81
2017-08-25T01:19:43.190Z,67.30
2017-08-25T01:22:10.696Z,66.93
2017-08-25T01:24:38.183Z,67.26
2017-08-25T01:27:06.123Z,67.30
2017-08-25T01:29:33.657Z,67.22
2017-08-25T01:32:01.102Z,67.21
2017-08-25T01:34:28.595Z,67.07
2017-08-25T01:36:56.054Z,66.64
2017-08-25T01:39:23.529Z,66.11
2017-08-25T01:41:51.009Z,66.30
2017-08-25T01:44:18.489Z,67.31
2017-08-25T01:46:45.951Z,67.65
2017-08-25T01:49:13.442Z,67.93
2017-08-25T01:51:40.904Z,68.65
2017-08-25T01:54:08.377Z,68.17
2017-08-25T01:56:35.891Z,67.95
2017-08-25T01:59:03.365Z,68.04
2017-08-25T02:01:30.873Z,68.29
2017-08-25T02:03:58.344Z,68.30
2017-08-25T02:06:25.845Z,68.15
2017-08-25T02:08:53.293Z,68.15
2017-08-25T02:11:20.759Z,67.87
2017-08-25T02:13:48.258Z,67.34
2017-08-25T02:16:15.772Z,66.78
2017-08-25T02:18:44.001Z,67.16
2017-08-25T02:21:11.517Z,67.64
2017-08-25T02:23:38.965Z,67.45
2017-08-25T02:26:06.448Z,67.89
2017-08-25T02:28:33.941Z,68.04
2017-08-25T02:31:01.430Z,68.36
2017-08-25T02:33:28.927Z,68.12
2017-08-25T02:35:56.862Z,67.70
2017-08-25T02:38:24.360Z,67.54
2017-08-25T02:40:51.823Z,67.44
2017-08-25T02:43:19.310Z,67.45
2017-08-25T02:45:46.787Z,68.05
2017-08-25T02:48:14.273Z,68.47
2017-08-25T02:50:41.771Z,68.73
2017-08-25T02:53:09.254Z,68.55
2017-08-25T02:55:36.759Z,68.36
2017-08-25T02:58:04.222Z,68.51
2017-08-25T03:00:31.723Z,68.28
2017-08-25T03:02:59.169Z,67.97
2017-08-25T03:05:26.650Z,68.02
2017-08-25T03:07:54.126Z,68.22
2017-08-25T03:10:21.624Z,68.14
2017-08-25T03:12:49.117Z,67.83
2017-08-25T03:15:16.602Z,67.98
2017-08-25T03:17:44.203Z,68.12
2017-08-25T03:20:11.661Z,69.54
2017-08-25T03:22:39.117Z,69.57
2017-08-25T03:25:06.925Z,69.33
2017-08-25T03:27:34.389Z,69.30
2017-08-25T03:30:01.857Z,69.36
2017-08-25T03:32:29.347Z,69.17
2017-08-25T03:34:56.805Z,69.14
2017-08-25T03:37:24.295Z,68.89
2017-08-25T03:39:51.786Z,68.78
2017-08-25T03:42:19.271Z,68.90
2017-08-25T03:44:47.541Z,68.80
2017-08-25T03:47:15.056Z,69.01
2017-08-25T03:49:42.561Z,68.85
2017-08-25T03:52:10.048Z,68.84
2017-08-25T03:54:37.525Z,69.21
2017-08-25T03:57:05.882Z,68.94
2017-08-25T03:59:33.393Z,68.80
2017-08-25T04:02:00.846Z,69.02
2017-08-25T04:04:28.330Z,69.21
2017-08-25T04:06:55.835Z,69.28
2017-08-25T04:09:23.317Z,69.53
2017-08-25T04:11:50.839Z,69.46
2017-08-25T04:14:18.439Z,69.52
2017-08-25T04:16:45.903Z,69.45
2017-08-25T04:19:13.386Z,69.86
2017-08-25T04:21:40.869Z,70.21
2017-08-25T04:24:08.318Z,70.25
2017-08-25T04:26:36.783Z,70.07
2017-08-25T04:29:04.313Z,70.02
2017-08-25T04:31:31.850Z,70.18
2017-08-25T04:33:59.326Z,70.25
2017-08-25T04:36:26.816Z,70.08
2017-08-25T04:38:54.299Z,70.42
2017-08-25T04:41:21.806Z,70.25
2017-08-25T04:43:49.269Z,70.22
2017-08-25T04:46:16.759Z,70.08
2017-08-25T04:48:44.245Z,70.09
2017-08-25T04:51:11.738Z,70.40
2017-08-25T04:53:39.192Z,70.18
2017-08-25T04:56:06.705Z,70.31
2017-08-25T04:58:34.199Z,70.53
2017-08-25T05:01:01.679Z,70.34
2017-08-25T05:03:29.179Z,70.40
2017-08-25T05:05:56.727Z,70.06
2017-08-25T05:08:24.209Z,69.67
2017-08-25T05:10:52.379Z,69.75
2017-08-25T05:13:19.861Z,70.00
2017-08-25T05:15:47.358Z,69.89
2017-08-25T05:18:15.043Z,69.81
2017-08-25T05:20:43.490Z,70.08
2017-08-25T05:23:11.040Z,70.12
2017-08-25T05:25:38.539Z,69.83
2017-08-25T05:28:06.049Z,69.72
2017-08-25T05:30:33.562Z,69.82
2017-08-25T05:33:01.013Z,69.79
2017-08-25T05:35:28.506Z,69.80
2017-08-25T05:37:55.995Z,69.71
2017-08-25T05:40:23.546Z,69.42
2017-08-25T05:42:51.056Z,69.24
2017-08-25T05:45:18.543Z,69.20
2017-08-25T05:47:46.053Z,69.45
2017-08-25T05:50:13.612Z,69.30
2017-08-25T05:52:41.184Z,69.10
2017-08-25T05:55:08.681Z,68.82
2017-08-25T05:57:36.361Z,69.08
2017-08-25T06:00:03.906Z,69.32
2017-08-25T06:02:31.409Z,69.31
2017-08-25T06:04:58.976Z,68.94
2017-08-25T06:07:26.464Z,68.72
2017-08-25T06:09:54.205Z,68.88
2017-08-25T06:12:21.859Z,68.99
2017-08-25T06:14:49.310Z,68.64
2017-08-25T06:17:16.773Z,68.02
2017-08-25T06:19:44.388Z,68.57
2017-08-25T06:22:11.869Z,68.75
2017-08-25T06:27:13.073Z,68.40
2017-08-25T06:29:40.613Z,67.94
2017-08-25T06:32:08.098Z,67.80
2017-08-25T06:34:35.588Z,67.47
2017-08-25T06:37:03.048Z,67.45
2017-08-25T06:39:32.062Z,67.28
2017-08-25T06:42:01.574Z,66.96
2017-08-25T06:44:29.079Z,66.72
2017-08-25T06:46:56.665Z,66.32
2017-08-25T06:49:24.128Z,65.96
2017-08-25T06:51:51.713Z,65.97
2017-08-25T06:54:19.184Z,65.95
2017-08-25T06:56:46.663Z,65.09
2017-08-25T06:59:14.185Z,64.75
2017-08-25T07:01:41.669Z,64.42
2017-08-25T07:04:09.163Z,64.14
2017-08-25T07:06:36.642Z,64.32
2017-08-25T07:09:04.375Z,64.44
2017-08-25T07:11:31.876Z,64.17
2017-08-25T07:13:59.330Z,63.67
2017-08-25T07:16:26.827Z,63.30
2017-08-25T07:18:54.318Z,62.89
2017-08-25T07:21:22.385Z,62.45
2017-08-25T07:23:50.582Z,62.33
2017-08-25T07:26:18.088Z,62.30
2017-08-25T07:28:45.578Z,61.80
2017-08-25T07:31:13.353Z,60.95
2017-08-25T07:33:40.819Z,61.08
2017-08-25T07:36:08.349Z,60.68
2017-08-25T07:38:35.834Z,60.52
2017-08-25T07:41:03.336Z,60.26
2017-08-25T07:43:31.140Z,59.98
2017-08-25T07:45:58.634Z,60.21
2017-08-25T07:48:26.138Z,59.89
2017-08-25T07:50:53.689Z,59.21
2017-08-25T07:53:21.201Z,58.77
2017-08-25T07:55:48.676Z,58.27
2017-08-25T07:58:16.158Z,57.99
2017-08-25T08:00:44.062Z,58.07
2017-08-25T08:03:11.586Z,57.95
2017-08-25T08:05:39.067Z,57.82
2017-08-25T08:08:06.573Z,57.79
2017-08-25T08:10:34.765Z,56.94
2017-08-25T08:13:02.349Z,56.54
2017-08-25T08:15:29.809Z,56.71
2017-08-25T08:17:57.257Z,56.28
2017-08-25T08:20:24.766Z,56.08
2017-08-25T08:22:52.237Z,55.60
2017-08-25T08:25:19.725Z,56.00
2017-08-25T08:27:47.204Z,55.58
2017-08-25T08:30:14.705Z,55.03
2017-08-25T08:32:42.180Z,54.26
2017-08-25T08:35:09.670Z,54.35
2017-08-25T08:37:37.149Z,54.79
2017-08-25T08:40:05.125Z,54.27
2017-08-25T08:42:32.620Z,54.30
2017-08-25T08:45:00.113Z,54.03
2017-08-25T08:47:27.599Z,54.19
2017-08-25T08:52:28.832Z,53.94
2017-08-25T08:54:56.286Z,53.52
2017-08-25T08:57:23.782Z,53.73
2017-08-25T08:59:52.150Z,53.11
2017-08-25T09:02:19.634Z,52.91
2017-08-25T09:04:47.149Z,53.14
2017-08-25T09:07:14.695Z,52.89
2017-08-25T09:09:42.178Z,52.98
2017-08-25T09:12:09.661Z,52.74
2017-08-25T09:14:37.471Z,52.71
2017-08-25T09:17:04.997Z,52.79
2017-08-25T09:19:33.006Z,52.61
2017-08-25T09:22:00.481Z,52.51
2017-08-25T09:24:27.996Z,52.56
2017-08-25T09:26:55.492Z,52.42
2017-08-25T09:29:22.981Z,52.45
2017-08-25T09:31:50.565Z,52.20
2017-08-25T09:34:18.048Z,52.08
2017-08-25T09:36:45.515Z,52.07
2017-08-25T09:39:13.003Z,51.77
2017-08-25T09:41:40.512Z,51.49
2017-08-25T09:44:07.965Z,51.38
2017-08-25T09:46:35.459Z,50.94
2017-08-25T09:49:03.984Z,51.02
2017-08-25T09:51:32.381Z,51.54
2017-08-25T09:53:59.932Z,51.53
2017-08-25T09:56:27.492Z,51.20
2017-08-25T09:58:55.931Z,51.32
2017-08-25T10:01:23.446Z,51.25
2017-08-25T10:03:50.920Z,51.23
2017-08-25T10:06:18.426Z,51.23
2017-08-25T10:08:45.906Z,51.15
2017-08-25T10:11:13.450Z,50.72
2017-08-25T10:13:41.004Z,50.76
2017-08-25T10:16:09.462Z,50.43
2017-08-25T10:18:36.969Z,50.39
2017-08-25T10:21:05.515Z,50.01
2017-08-25T10:23:42.732Z,49.88
2017-08-25T10:26:10.247Z,50.16
2017-08-25T10:28:37.728Z,50.09
2017-08-25T10:31:06.086Z,50.95
2017-08-25T10:33:43.585Z,50.83
2017-08-25T10:36:22.958Z,50.67
2017-08-25T10:39:02.150Z,50.53
2017-08-25T10:41:41.344Z,50.36
2017-08-25T10:44:20.814Z,50.18
2017-08-25T10:46:48.388Z,49.93
2017-08-25T10:49:18.291Z,49.82
2017-08-25T10:51:46.552Z,49.90
2017-08-25T10:54:14.024Z,49.92
2017-08-25T10:56:42.778Z,49.89
2017-08-25T10:59:10.659Z,49.91
2017-08-25T11:01:38.198Z,49.77
2017-08-25T11:04:05.667Z,49.50
2017-08-25T11:06:33.156Z,49.63
2017-08-25T11:09:00.655Z,49.52
2017-08-25T11:11:28.729Z,49.49
2017-08-25T11:13:56.217Z,49.20
2017-08-25T11:16:23.703Z,49.02
2017-08-25T11:18:51.251Z,48.72
2017-08-25T11:21:18.748Z,48.72
2017-08-25T11:23:46.275Z,48.63
2017-08-25T11:26:13.765Z,48.37
2017-08-25T11:28:41.277Z,48.62
2017-08-25T11:31:08.811Z,48.40
2017-08-25T11:33:36.310Z,47.88
2017-08-25T11:36:03.781Z,47.76
2017-08-25T11:38:31.276Z,47.80
2017-08-25T11:40:58.735Z,47.54
2017-08-25T11:43:26.303Z,47.75
2017-08-25T11:45:53.822Z,47.10
2017-08-25T11:48:21.387Z,46.81
2017-08-25T11:50:48.904Z,46.67
2017-08-25T11:53:16.434Z,45.77
2017-08-25T11:55:43.953Z,45.53
2017-08-25T11:58:11.481Z,45.56
2017-08-25T12:00:38.980Z,46.13
2017-08-25T12:03:06.446Z,45.54
2017-08-25T12:05:33.970Z,45.68
2017-08-25T12:08:01.455Z,45.43
2017-08-25T12:10:28.933Z,45.81
2017-08-25T12:12:56.417Z,45.37
2017-08-25T12:15:23.887Z,45.60
2017-08-25T12:17:51.417Z,44.78
2017-08-25T12:20:19.183Z,44.36
2017-08-25T12:22:46.695Z,44.49
2017-08-25T12:25:14.150Z,43.86
2017-08-25T12:27:41.655Z,43.77
2017-08-25T12:30:09.440Z,43.53
2017-08-25T12:32:36.950Z,43.32
2017-08-25T12:35:05.013Z,43.14
2017-08-25T12:37:32.491Z,43.13
2017-08-25T12:39:59.989Z,42.85
2017-08-25T12:42:27.486Z,42.10
2017-08-25T12:44:54.999Z,42.48
2017-08-25T12:47:27.440Z,41.98
2017-08-25T12:49:54.938Z,41.84
2017-08-25T12:52:23.054Z,41.37
2017-08-25T12:54:50.664Z,41.54
2017-08-25T12:57:18.196Z,41.30
2017-08-25T12:59:45.664Z,41.52
2017-08-25T13:02:13.157Z,40.89
2017-08-25T13:04:40.790Z,40.54
2017-08-25T13:07:09.275Z,40.15
2017-08-25T13:09:36.726Z,39.92
2017-08-25T13:12:05.030Z,40.77
2017-08-25T13:14:32.542Z,41.02
2017-08-25T13:17:00.115Z,41.14
2017-08-25T13:19:27.614Z,41.36
2017-08-25T13:21:55.107Z,41.90
2017-08-25T13:24:22.587Z,42.02
2017-08-25T13:26:50.188Z,41.35
2017-08-25T13:29:18.433Z,41.64
2017-08-25T13:31:45.896Z,42.55
2017-08-25T13:34:14.186Z,41.97
2017-08-25T13:36:41.734Z,41.83
2017-08-25T13:39:09.657Z,41.72
2017-08-25T13:41:37.145Z,41.64
2017-08-25T13:44:04.658Z,40.42
2017-08-25T13:46:32.190Z,40.07
2017-08-25T13:49:00.424Z,39.75
2017-08-25T13:51:27.900Z,39.71
2017-08-25T13:53:55.407Z,40.14
2017-08-25T13:56:22.880Z,40.52
2017-08-25T13:58:50.373Z,39.82
2017-08-25T14:01:17.842Z,39.46
2017-08-25T14:03:45.376Z,38.59
2017-08-25T14:06:12.849Z,38.04
2017-08-25T14:08:40.391Z,37.17
2017-08-25T14:11:08.703Z,36.63
2017-08-25T14:13:36.179Z,37.83
2017-08-25T14:16:03.705Z,38.60
2017-08-25T14:18:31.890Z,38.78
2017-08-25T14:20:59.415Z,38.82
2017-08-25T14:23:26.934Z,38.13
2017-08-25T14:25:54.437Z,37.84
2017-08-25T14:28:21.911Z,36.92
2017-08-25T14:30:49.414Z,36.62
2017-08-25T14:33:16.954Z,36.90
2017-08-25T14:35:44.436Z,36.75
2017-08-25T14:38:14.178Z,36.19
2017-08-25T14:40:41.639Z,36.89
2017-08-25T14:43:09.985Z,36.80
2017-08-25T14:45:37.447Z,37.06
2017-08-25T14:48:05.802Z,37.73
2017-08-25T14:50:33.266Z,37.48
2017-08-25T14:53:00.894Z,37.13
2017-08-25T14:55:28.880Z,37.77
2017-08-25T14:57:56.369Z,39.23
2017-08-25T15:00:23.881Z,39.55
2017-08-25T15:02:51.353Z,40.56
2017-08-25T15:05:18.850Z,40.70
2017-08-25T15:07:46.341Z,41.49
2017-08-25T15:10:14.094Z,41.88
2017-08-25T15:12:41.594Z,41.49
2017-08-25T15:15:09.074Z,41.42
2017-08-25T15:17:36.607Z,41.14
2017-08-25T15:20:04.691Z,41.53
2017-08-25T15:22:32.157Z,41.65
2017-08-25T15:24:59.659Z,41.82
2017-08-25T15:27:27.163Z,42.22
2017-08-25T15:29:54.655Z,42.05
2017-08-25T15:32:22.161Z,41.88
2017-08-25T15:34:49.792Z,42.36
2017-08-25T15:37:17.867Z,42.80
2017-08-25T15:39:45.427Z,43.10
2017-08-25T15:42:12.965Z,42.83
2017-08-25T15:44:40.419Z,43.01
2017-08-25T15:47:07.915Z,43.24
2017-08-25T15:49:35.402Z,43.40
2017-08-25T15:52:02.858Z,43.68
2017-08-25T15:54:31.283Z,44.00
2017-08-25T15:56:59.165Z,43.76
2017-08-25T15:59:26.667Z,45.59
2017-08-25T16:01:54.146Z,46.98
2017-08-25T16:04:21.646Z,47.18
2017-08-25T16:06:49.134Z,47.42
2017-08-25T16:09:16.709Z,46.67
2017-08-25T16:11:44.241Z,47.53
2017-08-25T16:14:11.735Z,47.91
2017-08-25T16:16:39.241Z,48.94
2017-08-25T16:19:06.737Z,50.14
2017-08-25T16:21:34.208Z,51.21
2017-08-25T16:24:01.688Z,51.12
2017-08-25T16:26:29.357Z,50.94
2017-08-25T16:28:56.847Z,53.04
2017-08-25T16:31:24.382Z,52.11
2017-08-25T16:33:51.842Z,51.12
2017-08-25T16:36:19.384Z,49.18
2017-08-25T16:38:46.914Z,49.32
2017-08-25T16:41:14.404Z,48.82
2017-08-25T16:43:41.882Z,49.73
2017-08-25T16:46:09.401Z,50.32
2017-08-25T16:48:36.878Z,50.13
2017-08-25T16:51:04.350Z,49.84
2017-08-25T16:53:31.854Z,49.64
2017-08-25T16:55:59.338Z,50.05
2017-08-25T16:58:27.094Z,49.84
2017-08-25T17:00:54.544Z,49.93
2017-08-25T17:03:22.041Z,49.55
2017-08-25T17:05:49.498Z,49.25
2017-08-25T17:08:16.966Z,49.62
2017-08-25T17:10:44.461Z,49.40
2017-08-25T17:13:11.951Z,49.17
2017-08-25T17:15:39.439Z,49.22
2017-08-25T17:18:06.921Z,49.36
2017-08-25T17:20:34.419Z,49.84
2017-08-25T17:23:01.873Z,50.35
2017-08-25T17:25:29.411Z,50.77
2017-08-25T17:27:56.862Z,50.70
2017-08-25T17:30:24.351Z,51.15
2017-08-25T17:32:51.854Z,51.38
2017-08-25T17:35:19.333Z,51.94
2017-08-25T17:37:46.818Z,52.26
2017-08-25T17:40:14.273Z,52.50
2017-08-25T17:42:41.753Z,52.63
2017-08-25T17:45:09.222Z,52.69
2017-08-25T17:47:37.086Z,53.09
2017-08-25T17:50:04.541Z,53.10
2017-08-25T17:52:32.005Z,53.26
2017-08-25T17:55:00.310Z,53.07
2017-08-25T17:57:27.827Z,53.22
2017-08-25T17:59:55.315Z,53.22
2017-08-25T18:02:23.322Z,53.18
2017-08-25T18:04:50.815Z,53.43
2017-08-25T18:07:18.282Z,53.90
2017-08-25T18:09:45.811Z,53.81
2017-08-25T18:12:13.319Z,53.59
2017-08-25T18:14:40.794Z,53.62
2017-08-25T18:17:08.280Z,53.96
2017-08-25T18:19:35.766Z,54.08
2017-08-25T18:22:03.270Z,54.13
2017-08-25T18:24:31.095Z,54.59
2017-08-25T18:26:58.606Z,54.72
2017-08-25T18:29:26.063Z,54.63
2017-08-25T18:31:53.568Z,54.62
2017-08-25T18:34:21.062Z,54.89
2017-08-25T18:36:48.553Z,54.94
2017-08-25T18:39:16.117Z,54.98
2017-08-25T18:41:43.596Z,55.12
2017-08-25T18:44:11.273Z,55.31
2017-08-25T18:46:38.744Z,55.43
2017-08-25T18:49:06.218Z,55.70
2017-08-25T18:51:33.703Z,55.72
2017-08-25T18:54:01.189Z,55.81
2017-08-25T18:56:28.645Z,55.90
2017-08-25T18:58:56.133Z,56.06
2017-08-25T19:01:23.641Z,56.20
2017-08-25T19:03:51.095Z,56.26
2017-08-25T19:06:18.589Z,56.46
2017-08-25T19:08:46.056Z,57.28
2017-08-25T19:11:14.407Z,57.92
2017-08-25T19:13:41.924Z,57.71
2017-08-25T19:16:09.401Z,57.39
2017-08-25T19:18:36.895Z,57.31
2017-08-25T19:21:04.386Z,57.41
2017-08-25T19:23:31.903Z,57.24
2017-08-25T19:25:59.358Z,57.26
2017-08-25T19:28:26.988Z,57.51
2017-08-25T19:30:54.467Z,57.47
2017-08-25T19:33:21.939Z,57.39
2017-08-25T19:35:49.458Z,57.87
2017-08-25T19:38:16.967Z,57.82
2017-08-25T19:40:44.474Z,57.72
2017-08-25T19:43:11.963Z,57.81
2017-08-25T19:45:39.478Z,58.07
2017-08-25T19:48:06.962Z,58.93
2017-08-25T19:50:34.444Z,59.06
2017-08-25T19:53:01.933Z,58.89
2017-08-25T19:55:29.442Z,58.93
2017-08-25T19:57:56.946Z,59.01
2017-08-25T20:00:24.404Z,59.73
2017-08-25T20:02:51.912Z,59.71
2017-08-25T20:05:19.381Z,60.12
2017-08-25T20:07:46.995Z,59.89
2017-08-25T20:10:14.504Z,59.96
2017-08-25T20:12:41.991Z,60.23
2017-08-25T20:15:09.504Z,60.47
2017-08-25T20:17:36.961Z,60.61
2017-08-25T20:20:04.446Z,60.82
2017-08-25T20:22:31.930Z,61.05
2017-08-25T20:24:59.416Z,61.09
2017-08-25T20:27:26.895Z,61.14
2017-08-25T20:29:54.395Z,61.28
2017-08-25T20:32:22.237Z,61.17
2017-08-25T20:34:49.812Z,61.34
2017-08-25T20:37:17.287Z,61.49
2017-08-25T20:39:44.758Z,62.00
2017-08-25T20:42:12.254Z,62.69
2017-08-25T20:44:39.730Z,63.40
2017-08-25T20:47:07.456Z,63.59
2017-08-25T20:49:35.718Z,63.55
2017-08-25T20:52:03.189Z,63.19
2017-08-25T20:54:30.645Z,63.04
2017-08-25T20:56:58.120Z,62.71
2017-08-25T20:59:25.620Z,62.68
2017-08-25T21:01:53.092Z,62.82
2017-08-25T21:04:20.593Z,62.90
2017-08-25T21:06:48.068Z,62.99
2017-08-25T21:09:16.765Z,63.30
2017-08-25T21:11:44.234Z,63.48
2017-08-25T21:14:11.767Z,63.23
2017-08-25T21:16:39.247Z,63.14
2017-08-25T21:19:06.751Z,63.26
2017-08-25T21:21:34.212Z,63.46
2017-08-25T21:24:01.685Z,63.68
2017-08-25T21:26:29.181Z,64.06
2017-08-25T21:28:56.637Z,63.07
2017-08-25T21:31:24.120Z,61.63
2017-08-25T21:33:51.588Z,61.02
2017-08-25T21:36:19.078Z,60.10
2017-08-25T21:38:46.569Z,59.71
2017-08-25T21:41:14.084Z,59.29
2017-08-25T21:43:41.542Z,59.34
2017-08-25T21:46:09.032Z,59.32
2017-08-25T21:48:36.526Z,59.04
2017-08-25T21:51:03.989Z,58.90
2017-08-25T21:53:31.464Z,59.04
2017-08-25T21:55:58.938Z,58.97
2017-08-25T21:58:26.500Z,59.10
2017-08-25T22:00:53.985Z,59.06
2017-08-25T22:03:21.505Z,58.99
2017-08-25T22:05:48.987Z,58.99
2017-08-25T22:08:16.486Z,59.01
2017-08-25T22:10:43.941Z,59.27
2017-08-25T22:13:11.511Z,60.43
2017-08-25T22:15:39.079Z,61.37
2017-08-25T22:18:06.547Z,62.28
2017-08-25T22:20:34.027Z,63.04
2017-08-25T22:23:01.488Z,63.42
2017-08-25T22:25:28.992Z,63.54
2017-08-25T22:27:56.504Z,63.88
2017-08-25T22:30:24.009Z,64.27
2017-08-25T22:32:51.489Z,64.62
2017-08-25T22:35:18.992Z,64.71
2017-08-25T22:37:46.467Z,64.95
2017-08-25T22:40:13.965Z,64.95
2017-08-25T22:42:41.466Z,65.14
2017-08-25T22:45:08.942Z,65.38
2017-08-25T22:47:36.433Z,65.83
2017-08-25T22:50:03.917Z,65.81
2017-08-25T22:52:31.417Z,65.92
2017-08-25T22:54:58.898Z,66.09
2017-08-25T22:57:26.387Z,66.21
2017-08-25T22:59:53.840Z,66.39
2017-08-25T23:02:21.339Z,66.67
2017-08-25T23:04:48.880Z,66.68
2017-08-25T23:07:16.392Z,66.38
2017-08-25T23:09:43.921Z,66.30
2017-08-25T23:12:11.429Z,66.88
2017-08-25T23:14:38.929Z,66.74
2017-08-25T23:17:07.122Z,67.02
2017-08-25T23:19:34.662Z,67.35
2017-08-25T23:22:02.138Z,67.17
2017-08-25T23:24:29.625Z,67.04
2017-08-25T23:26:57.089Z,67.40
2017-08-25T23:29:24.579Z,67.74
2017-08-25T23:31:52.025Z,67.95
2017-08-25T23:34:19.518Z,67.88
2017-08-25T23:36:46.968Z,68.50
2017-08-25T23:39:14.460Z,68.52
2017-08-25T23:41:41.993Z,68.40
2017-08-25T23:44:09.494Z,68.28
2017-08-25T23:46:37.004Z,68.48
2017-08-25T23:49:05.239Z,68.49
2017-08-25T23:51:32.766Z,68.76
2017-08-25T23:54:00.245Z,68.83
2017-08-25T23:56:27.743Z,69.13
2017-08-25T23:58:55.226Z,69.38
